DLH5EC EDDF-EDDH
Flight info
| Callsign | DLH5EC |
|---|---|
| Flight time | N/A |
| Altitude | 35000 |
| Route | MARUN3W/25C MARUN Y150 TOLGI DCT SAS/N0441F340 P605 NOLGO NOLGO6A |
| Aircraft | A321/M-SDE3FGHIRWY/LB1 |
Departure
| Time | 2026-05-07 12:35 |
|---|---|
| Airport | Frankfurt Main Airport (EDDF) |
Arrival
| Time | N/A |
|---|---|
| Airport | Hamburg Helmut Schmidt Airport (EDDH) |
| Time | Latitude | Longitude | Altitude | Speed | Heading |
|---|---|---|---|---|---|
| 2026-05-07 12:15 | 50.04705 | 8.56841 | 356 ft | 0 kts | 294° |
| 2026-05-07 12:24 | 50.04702 | 8.56851 | 356 ft | 2 kts | 291° |
| 2026-05-07 12:24 | 50.04696 | 8.56875 | 361 ft | 2 kts | 287° |
| 2026-05-07 12:24 | 50.04690 | 8.56899 | 360 ft | 2 kts | 289° |
| 2026-05-07 12:25 | 50.04686 | 8.56924 | 363 ft | 2 kts | 280° |
| 2026-05-07 12:25 | 50.04685 | 8.56950 | 362 ft | 2 kts | 238° |
| 2026-05-07 12:25 | 50.04694 | 8.56964 | 364 ft | 1 kts | 203° |
| 2026-05-07 12:25 | 50.04695 | 8.56964 | 364 ft | 0 kts | 205° |
| 2026-05-07 12:29 | 50.04690 | 8.56961 | 364 ft | 2 kts | 205° |
| 2026-05-07 12:29 | 50.04674 | 8.56949 | 359 ft | 3 kts | 205° |
| 2026-05-07 12:30 | 50.04642 | 8.56927 | 363 ft | 8 kts | 201° |
| 2026-05-07 12:30 | 50.04538 | 8.56886 | 359 ft | 17 kts | 193° |
| 2026-05-07 12:30 | 50.04416 | 8.56846 | 362 ft | 19 kts | 188° |
| 2026-05-07 12:30 | 50.04310 | 8.56823 | 362 ft | 7 kts | 168° |
| 2026-05-07 12:31 | 50.04288 | 8.56955 | 361 ft | 24 kts | 73° |
| 2026-05-07 12:31 | 50.04349 | 8.57210 | 363 ft | 20 kts | 70° |
| 2026-05-07 12:31 | 50.04392 | 8.57392 | 368 ft | 18 kts | 69° |
| 2026-05-07 12:31 | 50.04438 | 8.57584 | 365 ft | 18 kts | 69° |
| 2026-05-07 12:32 | 50.04483 | 8.57773 | 365 ft | 19 kts | 68° |
| 2026-05-07 12:32 | 50.04531 | 8.57974 | 367 ft | 21 kts | 69° |
| 2026-05-07 12:32 | 50.04583 | 8.58193 | 369 ft | 21 kts | 70° |
| 2026-05-07 12:32 | 50.04634 | 8.58402 | 370 ft | 21 kts | 70° |
| 2026-05-07 12:33 | 50.04589 | 8.58590 | 370 ft | 6 kts | 158° |
| 2026-05-07 12:33 | 50.04550 | 8.58614 | 372 ft | 6 kts | 162° |
| 2026-05-07 12:33 | 50.04488 | 8.58576 | 370 ft | 14 kts | 233° |
| 2026-05-07 12:34 | 50.04471 | 8.58519 | 374 ft | 4 kts | 247° |
| 2026-05-07 12:34 | 50.04441 | 8.58395 | 373 ft | 38 kts | 250° |
| 2026-05-07 12:34 | 50.04252 | 8.57604 | 368 ft | 116 kts | 249° |
| 2026-05-07 12:34 | 50.03897 | 8.56120 | 412 ft | 169 kts | 249° |
| 2026-05-07 12:35 | 50.03483 | 8.54437 | 1242 ft | 167 kts | 250° |
| 2026-05-07 12:35 | 50.03071 | 8.52715 | 1956 ft | 175 kts | 252° |
| 2026-05-07 12:35 | 50.02610 | 8.50841 | 2386 ft | 196 kts | 246° |
| 2026-05-07 12:35 | 50.01743 | 8.49119 | 2959 ft | 209 kts | 221° |
| 2026-05-07 12:36 | 50.00440 | 8.48092 | 3750 ft | 214 kts | 195° |
| 2026-05-07 12:36 | 49.98960 | 8.47722 | 4585 ft | 216 kts | 190° |
| 2026-05-07 12:36 | 49.97463 | 8.47390 | 5425 ft | 218 kts | 190° |
| 2026-05-07 12:36 | 49.95959 | 8.47009 | 6232 ft | 221 kts | 197° |
| 2026-05-07 12:37 | 49.94412 | 8.46311 | 6670 ft | 243 kts | 198° |
| 2026-05-07 12:37 | 49.92752 | 8.45504 | 7241 ft | 255 kts | 204° |
| 2026-05-07 12:37 | 49.91224 | 8.43946 | 7655 ft | 271 kts | 230° |
| 2026-05-07 12:37 | 49.90296 | 8.41414 | 8321 ft | 274 kts | 257° |
| 2026-05-07 12:38 | 49.90241 | 8.38475 | 9093 ft | 276 kts | 284° |
| 2026-05-07 12:38 | 49.91097 | 8.35832 | 9860 ft | 279 kts | 312° |
| 2026-05-07 12:38 | 49.92690 | 8.34121 | 10563 ft | 284 kts | 340° |
| 2026-05-07 12:38 | 49.94665 | 8.33790 | 11154 ft | 297 kts | 6° |
| 2026-05-07 12:39 | 49.96770 | 8.34443 | 11338 ft | 320 kts | 12° |
| 2026-05-07 12:39 | 49.99014 | 8.35290 | 11488 ft | 342 kts | 13° |
| 2026-05-07 12:39 | 50.01354 | 8.36222 | 11953 ft | 351 kts | 13° |
| 2026-05-07 12:39 | 50.03738 | 8.37175 | 12618 ft | 355 kts | 13° |
| 2026-05-07 12:40 | 50.06147 | 8.38127 | 13301 ft | 359 kts | 13° |
| 2026-05-07 12:40 | 50.08582 | 8.39068 | 13971 ft | 362 kts | 12° |
| 2026-05-07 12:40 | 50.11042 | 8.39998 | 14570 ft | 365 kts | 12° |
| 2026-05-07 12:40 | 50.13527 | 8.40927 | 15156 ft | 369 kts | 12° |
| 2026-05-07 12:41 | 50.15184 | 8.41544 | 15555 ft | 371 kts | 12° |
| 2026-05-07 12:41 | 50.17707 | 8.42487 | 16140 ft | 374 kts | 12° |
| 2026-05-07 12:41 | 50.20249 | 8.43448 | 16741 ft | 377 kts | 12° |
| 2026-05-07 12:41 | 50.22807 | 8.44422 | 17326 ft | 381 kts | 12° |
| 2026-05-07 12:42 | 50.25396 | 8.45407 | 17932 ft | 384 kts | 12° |
| 2026-05-07 12:42 | 50.28043 | 8.46414 | 18481 ft | 388 kts | 13° |
| 2026-05-07 12:42 | 50.30636 | 8.47400 | 18958 ft | 390 kts | 13° |
| 2026-05-07 12:42 | 50.33322 | 8.48422 | 19443 ft | 393 kts | 12° |
| 2026-05-07 12:43 | 50.35991 | 8.49439 | 19938 ft | 396 kts | 13° |
| 2026-05-07 12:43 | 50.38675 | 8.50464 | 20423 ft | 399 kts | 13° |
| 2026-05-07 12:43 | 50.41384 | 8.51497 | 20907 ft | 401 kts | 13° |
| 2026-05-07 12:43 | 50.44107 | 8.52539 | 21379 ft | 404 kts | 13° |
| 2026-05-07 12:44 | 50.46848 | 8.53591 | 21844 ft | 407 kts | 13° |
| 2026-05-07 12:44 | 50.49584 | 8.54639 | 22301 ft | 410 kts | 13° |
| 2026-05-07 12:44 | 50.52367 | 8.55705 | 22766 ft | 413 kts | 13° |
| 2026-05-07 12:44 | 50.55210 | 8.56792 | 23228 ft | 416 kts | 13° |
| 2026-05-07 12:45 | 50.57998 | 8.57856 | 23656 ft | 420 kts | 13° |
| 2026-05-07 12:45 | 50.60843 | 8.58949 | 24035 ft | 422 kts | 13° |
| 2026-05-07 12:45 | 50.63743 | 8.60070 | 24430 ft | 425 kts | 13° |
| 2026-05-07 12:45 | 50.66621 | 8.61186 | 24819 ft | 427 kts | 13° |
| 2026-05-07 12:46 | 50.69521 | 8.62311 | 25215 ft | 430 kts | 13° |
| 2026-05-07 12:46 | 50.72433 | 8.63441 | 25602 ft | 432 kts | 13° |
| 2026-05-07 12:46 | 50.75358 | 8.64576 | 25990 ft | 434 kts | 13° |
| 2026-05-07 12:46 | 50.78223 | 8.65943 | 26372 ft | 437 kts | 21° |
| 2026-05-07 12:47 | 50.80989 | 8.68109 | 26738 ft | 440 kts | 31° |
| 2026-05-07 12:47 | 50.83463 | 8.70970 | 27106 ft | 443 kts | 41° |
| 2026-05-07 12:47 | 50.85612 | 8.74464 | 27478 ft | 445 kts | 51° |
| 2026-05-07 12:47 | 50.87496 | 8.78367 | 27834 ft | 447 kts | 52° |
| 2026-05-07 12:48 | 50.89380 | 8.82308 | 28205 ft | 450 kts | 52° |
| 2026-05-07 12:48 | 50.91272 | 8.86264 | 28564 ft | 451 kts | 52° |
| 2026-05-07 12:48 | 50.93174 | 8.90239 | 28906 ft | 453 kts | 52° |
| 2026-05-07 12:48 | 50.95055 | 8.94181 | 29220 ft | 455 kts | 53° |
| 2026-05-07 12:49 | 50.96995 | 8.98255 | 29535 ft | 457 kts | 53° |
| 2026-05-07 12:49 | 50.98889 | 9.02236 | 29873 ft | 458 kts | 53° |
| 2026-05-07 12:49 | 51.00804 | 9.06264 | 30284 ft | 456 kts | 53° |
| 2026-05-07 12:49 | 51.02712 | 9.10284 | 30641 ft | 456 kts | 53° |
| 2026-05-07 12:50 | 51.04616 | 9.14310 | 30964 ft | 455 kts | 53° |
| 2026-05-07 12:50 | 51.06540 | 9.18386 | 31296 ft | 455 kts | 53° |
| 2026-05-07 12:50 | 51.08591 | 9.22230 | 31588 ft | 455 kts | 45° |
| 2026-05-07 12:50 | 51.10995 | 9.25497 | 31887 ft | 456 kts | 35° |
| 2026-05-07 12:51 | 51.13705 | 9.28102 | 32184 ft | 456 kts | 26° |
| 2026-05-07 12:51 | 51.16643 | 9.29967 | 32483 ft | 455 kts | 16° |
| 2026-05-07 12:51 | 51.19721 | 9.31134 | 32784 ft | 455 kts | 12° |
| 2026-05-07 12:51 | 51.22816 | 9.32186 | 33118 ft | 454 kts | 12° |
| 2026-05-07 12:52 | 51.25903 | 9.33249 | 33433 ft | 453 kts | 12° |
| 2026-05-07 12:52 | 51.28985 | 9.34320 | 33736 ft | 453 kts | 12° |
| 2026-05-07 12:52 | 51.32060 | 9.35394 | 34070 ft | 452 kts | 11° |
| 2026-05-07 12:52 | 51.35128 | 9.36465 | 34324 ft | 451 kts | 11° |
| 2026-05-07 12:53 | 51.38197 | 9.37535 | 34535 ft | 452 kts | 12° |
| 2026-05-07 12:53 | 51.41272 | 9.38613 | 34744 ft | 453 kts | 12° |
| 2026-05-07 12:53 | 51.44355 | 9.39696 | 34943 ft | 454 kts | 12° |
| 2026-05-07 12:53 | 51.47442 | 9.40781 | 35018 ft | 454 kts | 12° |
| 2026-05-07 12:54 | 51.53588 | 9.42936 | 35026 ft | 452 kts | 11° |
| 2026-05-07 12:54 | 51.59733 | 9.45087 | 35035 ft | 451 kts | 11° |
| 2026-05-07 12:55 | 51.65862 | 9.47249 | 35041 ft | 451 kts | 12° |
| 2026-05-07 12:55 | 51.71994 | 9.49419 | 35052 ft | 451 kts | 12° |
| 2026-05-07 12:56 | 51.78120 | 9.51595 | 35061 ft | 451 kts | 12° |
| 2026-05-07 12:56 | 51.84151 | 9.54355 | 35056 ft | 452 kts | 23° |
| 2026-05-07 12:57 | 51.89759 | 9.58925 | 35062 ft | 452 kts | 26° |
| 2026-05-07 12:57 | 51.95360 | 9.63578 | 35069 ft | 452 kts | 26° |
| 2026-05-07 12:58 | 52.00961 | 9.68227 | 35074 ft | 452 kts | 26° |
| 2026-05-07 12:58 | 52.06529 | 9.72856 | 35069 ft | 453 kts | 27° |
| 2026-05-07 12:59 | 52.12129 | 9.77537 | 35079 ft | 452 kts | 27° |
| 2026-05-07 12:59 | 52.17724 | 9.82231 | 35079 ft | 452 kts | 27° |
| 2026-05-07 13:00 | 52.23307 | 9.86929 | 34807 ft | 451 kts | 26° |
| 2026-05-07 13:00 | 52.26198 | 9.88878 | 34584 ft | 449 kts | 17° |
| 2026-05-07 13:00 | 52.29203 | 9.90245 | 34346 ft | 446 kts | 14° |
| 2026-05-07 13:01 | 52.32173 | 9.91540 | 34118 ft | 437 kts | 14° |
| 2026-05-07 13:01 | 52.35074 | 9.92805 | 33891 ft | 426 kts | 14° |
| 2026-05-07 13:01 | 52.37911 | 9.94046 | 33526 ft | 419 kts | 14° |
| 2026-05-07 13:01 | 52.40714 | 9.95280 | 33014 ft | 416 kts | 14° |
| 2026-05-07 13:02 | 52.43535 | 9.96526 | 31795 ft | 428 kts | 14° |
| 2026-05-07 13:02 | 52.46480 | 9.97828 | 30274 ft | 449 kts | 14° |
| 2026-05-07 13:02 | 52.49519 | 9.99173 | 29249 ft | 453 kts | 14° |
| 2026-05-07 13:02 | 52.52603 | 10.00539 | 28433 ft | 451 kts | 14° |
| 2026-05-07 13:03 | 52.55602 | 10.01874 | 27920 ft | 443 kts | 14° |
| 2026-05-07 13:03 | 52.58559 | 10.03194 | 27293 ft | 438 kts | 14° |
| 2026-05-07 13:03 | 52.61485 | 10.04504 | 26686 ft | 433 kts | 14° |
| 2026-05-07 13:03 | 52.64377 | 10.05798 | 26082 ft | 429 kts | 14° |
| 2026-05-07 13:04 | 52.67239 | 10.07077 | 25494 ft | 424 kts | 14° |
| 2026-05-07 13:04 | 52.70076 | 10.08345 | 24897 ft | 420 kts | 14° |
| 2026-05-07 13:04 | 52.72881 | 10.09602 | 24332 ft | 416 kts | 14° |
| 2026-05-07 13:04 | 52.75664 | 10.10850 | 23745 ft | 413 kts | 13° |
| 2026-05-07 13:05 | 52.78470 | 10.11702 | 23112 ft | 408 kts | 4° |
| 2026-05-07 13:05 | 52.81280 | 10.11897 | 22568 ft | 401 kts | 360° |
| 2026-05-07 13:05 | 52.84051 | 10.11982 | 22024 ft | 396 kts | 360° |
| 2026-05-07 13:05 | 52.86790 | 10.12076 | 21502 ft | 391 kts | 360° |
| 2026-05-07 13:06 | 52.89465 | 10.12170 | 21309 ft | 378 kts | 360° |
| 2026-05-07 13:06 | 52.92041 | 10.12259 | 21175 ft | 363 kts | 360° |
| 2026-05-07 13:06 | 52.94524 | 10.12343 | 20970 ft | 352 kts | 360° |
| 2026-05-07 13:06 | 52.96952 | 10.12424 | 20574 ft | 347 kts | 360° |
| 2026-05-07 13:07 | 52.99353 | 10.12501 | 20138 ft | 343 kts | 359° |
| 2026-05-07 13:07 | 53.01723 | 10.12577 | 19608 ft | 339 kts | 359° |
| 2026-05-07 13:07 | 53.04072 | 10.12654 | 19033 ft | 336 kts | 360° |
| 2026-05-07 13:07 | 53.06400 | 10.12730 | 18467 ft | 332 kts | 360° |
| 2026-05-07 13:08 | 53.08700 | 10.12803 | 17804 ft | 329 kts | 360° |
| 2026-05-07 13:08 | 53.10975 | 10.12875 | 17139 ft | 325 kts | 360° |
| 2026-05-07 13:08 | 53.13213 | 10.12952 | 16575 ft | 319 kts | 360° |
| 2026-05-07 13:08 | 53.15398 | 10.13026 | 16142 ft | 310 kts | 0° |
| 2026-05-07 13:09 | 53.17522 | 10.13097 | 15716 ft | 302 kts | 0° |
| 2026-05-07 13:09 | 53.19623 | 10.13166 | 15293 ft | 301 kts | 0° |
| 2026-05-07 13:09 | 53.21715 | 10.13233 | 14852 ft | 301 kts | 0° |
| 2026-05-07 13:09 | 53.23806 | 10.13303 | 14426 ft | 301 kts | 1° |
| 2026-05-07 13:10 | 53.25898 | 10.13376 | 13989 ft | 301 kts | 1° |
| 2026-05-07 13:10 | 53.27989 | 10.13448 | 13513 ft | 301 kts | 1° |
| 2026-05-07 13:10 | 53.30078 | 10.13518 | 13066 ft | 299 kts | 1° |
| 2026-05-07 13:10 | 53.32150 | 10.13584 | 12619 ft | 298 kts | 1° |
| 2026-05-07 13:11 | 53.34223 | 10.13652 | 12180 ft | 297 kts | 1° |
| 2026-05-07 13:11 | 53.36282 | 10.13658 | 11743 ft | 296 kts | 355° |
| 2026-05-07 13:11 | 53.38301 | 10.13040 | 11293 ft | 295 kts | 343° |
| 2026-05-07 13:11 | 53.40186 | 10.11698 | 10909 ft | 293 kts | 330° |
| 2026-05-07 13:12 | 53.41831 | 10.09737 | 10702 ft | 291 kts | 318° |
| 2026-05-07 13:12 | 53.43229 | 10.07294 | 10460 ft | 292 kts | 312° |
| 2026-05-07 13:12 | 53.44622 | 10.04699 | 10223 ft | 299 kts | 312° |
| 2026-05-07 13:12 | 53.45999 | 10.02141 | 9926 ft | 292 kts | 312° |
| 2026-05-07 13:13 | 53.47255 | 9.99812 | 9784 ft | 281 kts | 313° |
| 2026-05-07 13:13 | 53.48410 | 9.97265 | 9653 ft | 270 kts | 295° |
| 2026-05-07 13:13 | 53.48821 | 9.94281 | 9490 ft | 261 kts | 268° |
| 2026-05-07 13:13 | 53.48404 | 9.91405 | 9356 ft | 254 kts | 242° |
| 2026-05-07 13:14 | 53.47356 | 9.89003 | 9192 ft | 255 kts | 229° |
| 2026-05-07 13:14 | 53.46215 | 9.86720 | 9017 ft | 256 kts | 229° |
| 2026-05-07 13:14 | 53.45072 | 9.84428 | 8815 ft | 256 kts | 229° |
| 2026-05-07 13:14 | 53.43932 | 9.82140 | 8678 ft | 256 kts | 229° |
| 2026-05-07 13:15 | 53.42787 | 9.79847 | 8501 ft | 256 kts | 229° |
| 2026-05-07 13:15 | 53.41641 | 9.77553 | 8327 ft | 257 kts | 229° |
| 2026-05-07 13:15 | 53.40495 | 9.75257 | 8159 ft | 256 kts | 229° |
| 2026-05-07 13:15 | 53.39350 | 9.72971 | 7985 ft | 256 kts | 229° |
| 2026-05-07 13:16 | 53.38206 | 9.70691 | 7816 ft | 256 kts | 229° |
| 2026-05-07 13:16 | 53.37064 | 9.68415 | 7651 ft | 255 kts | 229° |
| 2026-05-07 13:16 | 53.35924 | 9.66144 | 7475 ft | 255 kts | 229° |
| 2026-05-07 13:16 | 53.34784 | 9.63869 | 7311 ft | 254 kts | 229° |
| 2026-05-07 13:17 | 53.33653 | 9.61611 | 7141 ft | 254 kts | 229° |
| 2026-05-07 13:17 | 53.32884 | 9.60080 | 7026 ft | 253 kts | 229° |
| 2026-05-07 13:17 | 53.31750 | 9.57828 | 6832 ft | 253 kts | 229° |
| 2026-05-07 13:17 | 53.30658 | 9.55534 | 6634 ft | 253 kts | 239° |
| 2026-05-07 13:18 | 53.30151 | 9.52762 | 6452 ft | 252 kts | 270° |
| 2026-05-07 13:18 | 53.30515 | 9.49948 | 6251 ft | 247 kts | 301° |
| 2026-05-07 13:18 | 53.31602 | 9.47802 | 6064 ft | 242 kts | 323° |
| 2026-05-07 13:18 | 53.32912 | 9.46024 | 5815 ft | 241 kts | 329° |
| 2026-05-07 13:19 | 53.34441 | 9.45090 | 5600 ft | 232 kts | 0° |
| 2026-05-07 13:19 | 53.35996 | 9.45511 | 5421 ft | 226 kts | 28° |
| 2026-05-07 13:19 | 53.37221 | 9.47081 | 5258 ft | 222 kts | 51° |
| 2026-05-07 13:19 | 53.38217 | 9.49064 | 5094 ft | 223 kts | 52° |
| 2026-05-07 13:20 | 53.39211 | 9.51044 | 4940 ft | 222 kts | 52° |
| 2026-05-07 13:20 | 53.40206 | 9.53024 | 4785 ft | 222 kts | 52° |
| 2026-05-07 13:20 | 53.41197 | 9.55011 | 4630 ft | 237 kts | 52° |
| 2026-05-07 13:20 | 53.42271 | 9.57180 | 4423 ft | 239 kts | 51° |
| 2026-05-07 13:21 | 53.43313 | 9.59255 | 4299 ft | 231 kts | 51° |
| 2026-05-07 13:21 | 53.44400 | 9.61421 | 4145 ft | 249 kts | 51° |
| 2026-05-07 13:21 | 53.45504 | 9.63618 | 3924 ft | 241 kts | 51° |
| 2026-05-07 13:21 | 53.46558 | 9.65720 | 3588 ft | 230 kts | 51° |
| 2026-05-07 13:22 | 53.47560 | 9.67716 | 3299 ft | 216 kts | 50° |
| 2026-05-07 13:22 | 53.48490 | 9.69576 | 3088 ft | 200 kts | 51° |
| 2026-05-07 13:22 | 53.49343 | 9.71281 | 3002 ft | 183 kts | 51° |
| 2026-05-07 13:22 | 53.50133 | 9.72863 | 3025 ft | 171 kts | 51° |
| 2026-05-07 13:23 | 53.50890 | 9.74378 | 3013 ft | 168 kts | 51° |
| 2026-05-07 13:23 | 53.51634 | 9.75869 | 3005 ft | 161 kts | 51° |
| 2026-05-07 13:23 | 53.52323 | 9.77248 | 2979 ft | 149 kts | 51° |
| 2026-05-07 13:23 | 53.52975 | 9.78556 | 2848 ft | 144 kts | 51° |
| 2026-05-07 13:24 | 53.53602 | 9.79814 | 2657 ft | 137 kts | 51° |
| 2026-05-07 13:24 | 53.54214 | 9.81043 | 2483 ft | 136 kts | 52° |
| 2026-05-07 13:24 | 53.54817 | 9.82253 | 2305 ft | 134 kts | 51° |
| 2026-05-07 13:24 | 53.55416 | 9.83458 | 2115 ft | 135 kts | 52° |
| 2026-05-07 13:25 | 53.56017 | 9.84665 | 1938 ft | 134 kts | 51° |
| 2026-05-07 13:25 | 53.56612 | 9.85863 | 1765 ft | 132 kts | 52° |
| 2026-05-07 13:25 | 53.57206 | 9.87058 | 1580 ft | 135 kts | 51° |
| 2026-05-07 13:25 | 53.57805 | 9.88265 | 1392 ft | 134 kts | 53° |
| 2026-05-07 13:26 | 53.58399 | 9.89460 | 1207 ft | 134 kts | 52° |
| 2026-05-07 13:26 | 53.58994 | 9.90666 | 1026 ft | 133 kts | 50° |
| 2026-05-07 13:26 | 53.59586 | 9.91850 | 834 ft | 132 kts | 52° |
| 2026-05-07 13:26 | 53.60177 | 9.93049 | 640 ft | 132 kts | 51° |
| 2026-05-07 13:27 | 53.60767 | 9.94229 | 429 ft | 134 kts | 52° |
| 2026-05-07 13:27 | 53.61361 | 9.95433 | 279 ft | 133 kts | 51° |
| 2026-05-07 13:27 | 53.61950 | 9.96622 | 106 ft | 130 kts | 51° |